createdAt,value
2022-07-30T00:05:55.682Z,18.32
2022-07-30T00:15:58.356Z,18.25
2022-07-30T00:26:02.606Z,18.22
2022-07-30T00:36:05.564Z,18.27
2022-07-30T00:46:09.679Z,18.24
2022-07-30T00:56:12.384Z,17.80
2022-07-30T01:06:16.417Z,17.59
2022-07-30T01:16:19.271Z,17.44
2022-07-30T01:26:23.829Z,17.25
2022-07-30T01:36:27.198Z,16.94
2022-07-30T01:46:32.367Z,16.80
2022-07-30T01:56:36.949Z,16.55
2022-07-30T02:06:47.162Z,16.50
2022-07-30T02:16:54.035Z,16.44
2022-07-30T02:27:04.217Z,16.29
2022-07-30T02:37:09.459Z,16.15
2022-07-30T02:47:16.418Z,16.15
2022-07-30T02:57:22.252Z,16.00
2022-07-30T03:07:28.103Z,15.95
2022-07-30T03:17:38.375Z,15.76
2022-07-30T03:27:43.962Z,15.47
2022-07-30T03:37:47.658Z,15.44
2022-07-30T03:47:52.594Z,15.41
2022-07-30T03:57:55.481Z,15.36
2022-07-30T04:07:59.507Z,15.37
2022-07-30T04:18:06.836Z,15.41
2022-07-30T04:28:12.004Z,15.56
2022-07-30T04:38:14.930Z,15.65
2022-07-30T04:48:18.961Z,15.77
2022-07-30T04:58:23.577Z,16.15
2022-07-30T05:08:28.157Z,16.29
2022-07-30T05:18:31.933Z,16.36
2022-07-30T05:28:35.966Z,16.72
2022-07-30T05:38:40.071Z,17.09
2022-07-30T05:48:44.125Z,17.62
2022-07-30T05:58:46.864Z,18.06
2022-07-30T06:08:51.030Z,18.43
2022-07-30T06:18:53.740Z,18.82
2022-07-30T06:28:57.785Z,19.18
2022-07-30T06:39:00.427Z,19.61
2022-07-30T06:49:05.066Z,19.80
2022-07-30T06:59:07.994Z,20.16
2022-07-30T07:09:11.974Z,20.48
2022-07-30T07:19:14.730Z,20.78
2022-07-30T07:29:38.711Z,21.11
2022-07-30T07:39:42.433Z,21.38
2022-07-30T07:49:46.480Z,21.59
2022-07-30T07:59:49.940Z,21.80
2022-07-30T08:09:54.007Z,22.21
2022-07-30T08:19:59.711Z,22.40
2022-07-30T08:30:05.768Z,22.86
2022-07-30T08:40:09.852Z,23.18
2022-07-30T08:50:16.722Z,23.41
2022-07-30T09:00:21.202Z,23.77
2022-07-30T09:10:25.701Z,24.08
2022-07-30T09:20:30.015Z,24.12
2022-07-30T09:30:49.248Z,24.41
2022-07-30T09:40:57.233Z,24.82
2022-07-30T09:51:01.944Z,24.93
2022-07-30T10:01:05.552Z,25.33
2022-07-30T10:11:11.959Z,25.58
2022-07-30T10:21:16.896Z,25.73
2022-07-30T10:31:47.505Z,26.21
2022-07-30T10:41:54.154Z,26.18
2022-07-30T10:51:59.195Z,26.61
2022-07-30T11:02:10.896Z,26.85
2022-07-30T11:12:16.568Z,27.00
2022-07-30T11:22:26.120Z,27.55
2022-07-30T11:32:32.731Z,27.96
2022-07-30T11:42:35.975Z,31.35
2022-07-30T11:52:40.181Z,34.71
2022-07-30T12:02:42.877Z,31.23
2022-07-30T12:12:47.549Z,31.22
2022-07-30T12:22:50.224Z,31.76
2022-07-30T12:32:54.323Z,36.17
2022-07-30T12:42:57.037Z,37.06
2022-07-30T12:53:01.032Z,36.91
2022-07-30T13:03:03.670Z,34.60
2022-07-30T13:13:07.709Z,31.88
2022-07-30T13:23:10.342Z,30.11
2022-07-30T13:33:14.371Z,28.30
2022-07-30T13:43:17.036Z,28.03
2022-07-30T13:53:21.032Z,28.44
2022-07-30T14:03:23.675Z,28.27
2022-07-30T14:13:27.709Z,27.85
2022-07-30T14:23:31.057Z,27.71
2022-07-30T14:33:35.138Z,27.39
2022-07-30T14:43:37.795Z,27.29
2022-07-30T14:53:41.844Z,27.10
2022-07-30T15:03:50.380Z,26.79
2022-07-30T15:13:54.338Z,26.62
2022-07-30T15:23:57.186Z,26.22
2022-07-30T15:34:01.147Z,26.18
2022-07-30T15:44:04.008Z,25.81
2022-07-30T15:54:08.003Z,25.28
2022-07-30T16:04:19.926Z,25.54
2022-07-30T16:14:24.309Z,25.50
2022-07-30T16:24:26.950Z,25.06
2022-07-30T16:34:31.056Z,25.03
2022-07-30T16:44:34.300Z,24.89
2022-07-30T16:54:38.251Z,24.28
2022-07-30T17:04:41.434Z,24.20
2022-07-30T17:14:45.415Z,23.75
2022-07-30T17:24:48.034Z,23.61
2022-07-30T17:34:52.547Z,23.67
2022-07-30T17:44:55.167Z,23.35
2022-07-30T17:54:59.135Z,22.98
2022-07-30T18:05:02.396Z,22.66
2022-07-30T18:15:07.550Z,22.25
2022-07-30T18:25:18.106Z,22.07
2022-07-30T18:35:23.490Z,21.90
2022-07-30T18:45:28.381Z,21.73
2022-07-30T18:55:32.573Z,21.59
2022-07-30T19:05:36.313Z,21.52
2022-07-30T19:15:40.300Z,21.38
2022-07-30T19:25:43.290Z,21.18
2022-07-30T19:35:47.259Z,21.08
2022-07-30T19:45:49.923Z,21.09
2022-07-30T19:55:53.922Z,21.03
2022-07-30T20:05:59.303Z,20.83
2022-07-30T20:16:05.980Z,20.85
2022-07-30T20:26:12.495Z,20.74
2022-07-30T20:36:18.203Z,20.61
2022-07-30T20:46:23.375Z,20.79
2022-07-30T20:56:27.858Z,20.72
2022-07-30T21:06:32.656Z,20.60
2022-07-30T21:16:40.319Z,20.54
2022-07-30T21:26:43.376Z,20.49
2022-07-30T21:36:47.367Z,20.54
2022-07-30T21:46:51.644Z,20.55
2022-07-30T21:56:56.451Z,20.42
2022-07-30T22:07:01.942Z,20.28
2022-07-30T22:17:22.416Z,20.18
2022-07-30T22:27:26.094Z,20.14
2022-07-30T22:37:34.205Z,20.04
2022-07-30T22:47:50.882Z,20.09
2022-07-30T22:57:58.255Z,20.00
2022-07-30T23:08:01.051Z,19.88
2022-07-30T23:18:05.418Z,19.81
2022-07-30T23:28:08.051Z,19.76
2022-07-30T23:38:12.015Z,19.76
2022-07-30T23:48:14.943Z,19.68
2022-07-30T23:58:19.377Z,19.74
